sensor_id;sensor_type;location;lat;lon;timestamp;pressure;altitude;pressure_sealevel;temperature;humidity
11987;BME280;6053;51.382;6.768;2023-02-11T00:01:29;103089.50;;;8.02;100.00
11987;BME280;6053;51.382;6.768;2023-02-11T00:03:59;103088.59;;;8.38;100.00
11987;BME280;6053;51.382;6.768;2023-02-11T00:06:29;103096.75;;;8.47;100.00
11987;BME280;6053;51.382;6.768;2023-02-11T00:08:58;103096.50;;;8.59;98.69
11987;BME280;6053;51.382;6.768;2023-02-11T00:11:27;103084.50;;;8.68;97.72
11987;BME280;6053;51.382;6.768;2023-02-11T00:13:57;103081.81;;;8.76;96.57
11987;BME280;6053;51.382;6.768;2023-02-11T00:16:28;103073.22;;;8.79;95.93
11987;BME280;6053;51.382;6.768;2023-02-11T00:18:58;103079.53;;;8.71;96.97
11987;BME280;6053;51.382;6.768;2023-02-11T00:21:28;103085.31;;;8.16;100.00
11987;BME280;6053;51.382;6.768;2023-02-11T00:23:57;103069.13;;;8.13;100.00
11987;BME280;6053;51.382;6.768;2023-02-11T00:26:30;103069.88;;;8.41;100.00
11987;BME280;6053;51.382;6.768;2023-02-11T00:28:59;103060.44;;;8.70;97.26
11987;BME280;6053;51.382;6.768;2023-02-11T00:31:29;103062.13;;;8.97;93.86
11987;BME280;6053;51.382;6.768;2023-02-11T00:33:58;103072.50;;;9.11;92.23
11987;BME280;6053;51.382;6.768;2023-02-11T00:36:27;103073.53;;;9.10;92.65
11987;BME280;6053;51.382;6.768;2023-02-11T00:38:56;103071.22;;;8.89;93.76
11987;BME280;6053;51.382;6.768;2023-02-11T00:41:25;103076.56;;;8.65;95.95
11987;BME280;6053;51.382;6.768;2023-02-11T00:43:54;103084.44;;;7.98;100.00
11987;BME280;6053;51.382;6.768;2023-02-11T00:46:23;103073.03;;;8.46;99.25
11987;BME280;6053;51.382;6.768;2023-02-11T00:48:53;103079.06;;;8.50;98.63
11987;BME280;6053;51.382;6.768;2023-02-11T00:51:24;103070.22;;;8.64;97.33
11987;BME280;6053;51.382;6.768;2023-02-11T00:53:53;103063.59;;;8.31;100.00
11987;BME280;6053;51.382;6.768;2023-02-11T00:56:22;103059.25;;;7.67;100.00
11987;BME280;6053;51.382;6.768;2023-02-11T00:58:51;103044.75;;;6.83;100.00
11987;BME280;6053;51.382;6.768;2023-02-11T01:01:20;103047.59;;;7.19;100.00
11987;BME280;6053;51.382;6.768;2023-02-11T01:03:49;103042.69;;;7.76;100.00
11987;BME280;6053;51.382;6.768;2023-02-11T01:06:19;103057.59;;;8.10;100.00
11987;BME280;6053;51.382;6.768;2023-02-11T01:08:48;103067.88;;;8.25;100.00
11987;BME280;6053;51.382;6.768;2023-02-11T01:11:19;103069.69;;;7.81;100.00
11987;BME280;6053;51.382;6.768;2023-02-11T01:13:48;103064.53;;;7.78;100.00
11987;BME280;6053;51.382;6.768;2023-02-11T01:16:18;103064.09;;;7.37;100.00
11987;BME280;6053;51.382;6.768;2023-02-11T01:18:47;103074.81;;;7.58;100.00
11987;BME280;6053;51.382;6.768;2023-02-11T01:21:15;103075.06;;;7.37;100.00
11987;BME280;6053;51.382;6.768;2023-02-11T01:23:46;103068.19;;;7.51;100.00
11987;BME280;6053;51.382;6.768;2023-02-11T01:26:14;103061.59;;;7.97;100.00
11987;BME280;6053;51.382;6.768;2023-02-11T01:28:43;103061.97;;;8.20;100.00
11987;BME280;6053;51.382;6.768;2023-02-11T01:31:12;103067.66;;;8.45;100.00
11987;BME280;6053;51.382;6.768;2023-02-11T01:33:40;103064.41;;;8.23;100.00
11987;BME280;6053;51.382;6.768;2023-02-11T01:36:10;103069.41;;;7.21;100.00
11987;BME280;6053;51.382;6.768;2023-02-11T01:38:39;103078.22;;;7.24;100.00
11987;BME280;6053;51.382;6.768;2023-02-11T01:41:11;103099.78;;;7.83;100.00
11987;BME280;6053;51.382;6.768;2023-02-11T01:43:44;103091.72;;;7.36;100.00
11987;BME280;6053;51.382;6.768;2023-02-11T01:46:25;103085.00;;;8.19;100.00
11987;BME280;6053;51.382;6.768;2023-02-11T01:48:58;103079.38;;;7.22;100.00
11987;BME280;6053;51.382;6.768;2023-02-11T01:51:32;103077.78;;;7.19;100.00
11987;BME280;6053;51.382;6.768;2023-02-11T01:54:02;103064.28;;;7.08;100.00
11987;BME280;6053;51.382;6.768;2023-02-11T01:56:52;103063.81;;;7.76;100.00
11987;BME280;6053;51.382;6.768;2023-02-11T01:59:44;103041.59;;;8.49;100.00
11987;BME280;6053;51.382;6.768;2023-02-11T02:02:19;103040.25;;;8.09;100.00
11987;BME280;6053;51.382;6.768;2023-02-11T02:04:54;103038.25;;;7.75;100.00
11987;BME280;6053;51.382;6.768;2023-02-11T02:07:31;103035.66;;;8.18;100.00
11987;BME280;6053;51.382;6.768;2023-02-11T02:10:05;103038.84;;;7.33;100.00
11987;BME280;6053;51.382;6.768;2023-02-11T02:12:38;103038.31;;;7.48;100.00
11987;BME280;6053;51.382;6.768;2023-02-11T02:15:28;103047.81;;;7.89;100.00
11987;BME280;6053;51.382;6.768;2023-02-11T02:18:05;103043.56;;;8.21;100.00
11987;BME280;6053;51.382;6.768;2023-02-11T02:21:12;103040.41;;;7.36;100.00
11987;BME280;6053;51.382;6.768;2023-02-11T02:24:26;103041.81;;;7.94;100.00
11987;BME280;6053;51.382;6.768;2023-02-11T02:27:17;103035.00;;;8.42;100.00
11987;BME280;6053;51.382;6.768;2023-02-11T02:30:15;103031.56;;;7.78;100.00
11987;BME280;6053;51.382;6.768;2023-02-11T02:33:12;103033.81;;;7.29;100.00
11987;BME280;6053;51.382;6.768;2023-02-11T02:35:56;103026.38;;;7.75;100.00
11987;BME280;6053;51.382;6.768;2023-02-11T02:38:30;103031.81;;;7.85;100.00
11987;BME280;6053;51.382;6.768;2023-02-11T02:41:05;103020.09;;;7.83;100.00
11987;BME280;6053;51.382;6.768;2023-02-11T02:43:38;103030.22;;;7.46;100.00
11987;BME280;6053;51.382;6.768;2023-02-11T02:46:16;103029.53;;;7.62;100.00
11987;BME280;6053;51.382;6.768;2023-02-11T02:48:47;103029.00;;;7.13;100.00
11987;BME280;6053;51.382;6.768;2023-02-11T02:54:48;103018.44;;;7.36;100.00
11987;BME280;6053;51.382;6.768;2023-02-11T02:57:31;103033.19;;;7.53;100.00
11987;BME280;6053;51.382;6.768;2023-02-11T03:00:11;103024.41;;;7.67;100.00
11987;BME280;6053;51.382;6.768;2023-02-11T03:02:49;103019.31;;;7.37;100.00
11987;BME280;6053;51.382;6.768;2023-02-11T03:05:26;103007.44;;;6.91;100.00
11987;BME280;6053;51.382;6.768;2023-02-11T03:08:04;103009.41;;;7.26;100.00
11987;BME280;6053;51.382;6.768;2023-02-11T03:10:37;103002.44;;;7.31;100.00
11987;BME280;6053;51.382;6.768;2023-02-11T03:13:08;103004.94;;;7.25;100.00
11987;BME280;6053;51.382;6.768;2023-02-11T03:15:39;103000.84;;;6.56;100.00
11987;BME280;6053;51.382;6.768;2023-02-11T03:18:12;103000.81;;;6.28;100.00
11987;BME280;6053;51.382;6.768;2023-02-11T03:20:46;103002.63;;;7.02;100.00
11987;BME280;6053;51.382;6.768;2023-02-11T03:23:20;102998.06;;;6.93;100.00
11987;BME280;6053;51.382;6.768;2023-02-11T03:25:54;102991.53;;;7.75;100.00
11987;BME280;6053;51.382;6.768;2023-02-11T03:28:28;103007.53;;;6.81;100.00
11987;BME280;6053;51.382;6.768;2023-02-11T03:31:07;102999.69;;;7.67;100.00
11987;BME280;6053;51.382;6.768;2023-02-11T03:33:41;103007.28;;;7.38;100.00
11987;BME280;6053;51.382;6.768;2023-02-11T03:36:20;103000.16;;;6.54;100.00
11987;BME280;6053;51.382;6.768;2023-02-11T03:38:54;103012.38;;;6.87;100.00
11987;BME280;6053;51.382;6.768;2023-02-11T03:41:24;103006.31;;;6.56;100.00
11987;BME280;6053;51.382;6.768;2023-02-11T03:43:56;103000.19;;;7.45;100.00
11987;BME280;6053;51.382;6.768;2023-02-11T03:46:31;103003.97;;;7.88;100.00
11987;BME280;6053;51.382;6.768;2023-02-11T03:49:04;102988.78;;;7.40;100.00
11987;BME280;6053;51.382;6.768;2023-02-11T03:51:36;103003.25;;;7.14;100.00
11987;BME280;6053;51.382;6.768;2023-02-11T03:54:09;103000.72;;;7.66;100.00
11987;BME280;6053;51.382;6.768;2023-02-11T03:56:46;102992.53;;;7.21;100.00
11987;BME280;6053;51.382;6.768;2023-02-11T03:59:16;102998.31;;;7.00;100.00
11987;BME280;6053;51.382;6.768;2023-02-11T04:01:45;102993.19;;;6.87;100.00
11987;BME280;6053;51.382;6.768;2023-02-11T04:04:14;102985.00;;;7.76;100.00
11987;BME280;6053;51.382;6.768;2023-02-11T04:06:44;102992.91;;;6.53;100.00
11987;BME280;6053;51.382;6.768;2023-02-11T04:09:13;102987.25;;;6.92;100.00
11987;BME280;6053;51.382;6.768;2023-02-11T04:11:42;102985.06;;;7.13;100.00
11987;BME280;6053;51.382;6.768;2023-02-11T04:14:10;102979.53;;;7.59;100.00
11987;BME280;6053;51.382;6.768;2023-02-11T04:16:39;102973.06;;;7.86;100.00
11987;BME280;6053;51.382;6.768;2023-02-11T04:19:08;102972.22;;;7.85;100.00
11987;BME280;6053;51.382;6.768;2023-02-11T04:21:36;102974.09;;;7.85;100.00
11987;BME280;6053;51.382;6.768;2023-02-11T04:24:07;102975.91;;;7.22;100.00
11987;BME280;6053;51.382;6.768;2023-02-11T04:26:35;102982.19;;;7.68;100.00
11987;BME280;6053;51.382;6.768;2023-02-11T04:29:04;102989.97;;;7.37;100.00
11987;BME280;6053;51.382;6.768;2023-02-11T04:31:33;102996.91;;;6.68;100.00
11987;BME280;6053;51.382;6.768;2023-02-11T04:34:01;103000.72;;;7.66;100.00
11987;BME280;6053;51.382;6.768;2023-02-11T04:36:30;103014.28;;;7.86;100.00
11987;BME280;6053;51.382;6.768;2023-02-11T04:38:59;103003.06;;;7.25;100.00
11987;BME280;6053;51.382;6.768;2023-02-11T04:41:29;103002.69;;;7.38;100.00
11987;BME280;6053;51.382;6.768;2023-02-11T04:43:57;103003.53;;;7.74;100.00
11987;BME280;6053;51.382;6.768;2023-02-11T04:46:26;103014.41;;;8.28;100.00
11987;BME280;6053;51.382;6.768;2023-02-11T04:48:55;103007.50;;;7.98;100.00
11987;BME280;6053;51.382;6.768;2023-02-11T04:51:24;103025.56;;;7.29;100.00
11987;BME280;6053;51.382;6.768;2023-02-11T04:53:53;103025.84;;;7.71;100.00
11987;BME280;6053;51.382;6.768;2023-02-11T04:56:22;103015.16;;;7.68;100.00
11987;BME280;6053;51.382;6.768;2023-02-11T04:58:52;103006.34;;;7.11;100.00
11987;BME280;6053;51.382;6.768;2023-02-11T05:01:20;103004.03;;;7.52;100.00
11987;BME280;6053;51.382;6.768;2023-02-11T05:03:49;102999.94;;;7.38;100.00
11987;BME280;6053;51.382;6.768;2023-02-11T05:06:18;103003.53;;;6.93;100.00
11987;BME280;6053;51.382;6.768;2023-02-11T05:08:47;102996.69;;;6.79;100.00
11987;BME280;6053;51.382;6.768;2023-02-11T05:11:17;102995.84;;;7.24;100.00
11987;BME280;6053;51.382;6.768;2023-02-11T05:13:46;102999.59;;;7.05;100.00
11987;BME280;6053;51.382;6.768;2023-02-11T05:16:17;102998.88;;;7.93;100.00
11987;BME280;6053;51.382;6.768;2023-02-11T05:18:46;103005.88;;;7.33;100.00
11987;BME280;6053;51.382;6.768;2023-02-11T05:21:19;103001.66;;;6.94;100.00
11987;BME280;6053;51.382;6.768;2023-02-11T05:23:47;103001.78;;;7.02;100.00
11987;BME280;6053;51.382;6.768;2023-02-11T05:26:17;103008.50;;;7.35;100.00
11987;BME280;6053;51.382;6.768;2023-02-11T05:28:45;103000.31;;;7.61;100.00
11987;BME280;6053;51.382;6.768;2023-02-11T05:31:15;102998.22;;;7.55;100.00
11987;BME280;6053;51.382;6.768;2023-02-11T05:33:44;102998.31;;;7.00;100.00
11987;BME280;6053;51.382;6.768;2023-02-11T05:36:13;102994.16;;;8.03;100.00
11987;BME280;6053;51.382;6.768;2023-02-11T05:38:43;102989.59;;;8.72;100.00
11987;BME280;6053;51.382;6.768;2023-02-11T05:41:11;102979.59;;;8.37;100.00
11987;BME280;6053;51.382;6.768;2023-02-11T05:43:40;102982.72;;;8.16;100.00
11987;BME280;6053;51.382;6.768;2023-02-11T05:46:08;102978.13;;;8.24;100.00
11987;BME280;6053;51.382;6.768;2023-02-11T05:48:38;102974.91;;;7.41;100.00
11987;BME280;6053;51.382;6.768;2023-02-11T05:51:07;102984.28;;;7.92;100.00
11987;BME280;6053;51.382;6.768;2023-02-11T05:53:36;102974.69;;;8.22;100.00
11987;BME280;6053;51.382;6.768;2023-02-11T05:56:05;102986.25;;;8.52;100.00
11987;BME280;6053;51.382;6.768;2023-02-11T05:58:34;102985.25;;;8.61;100.00
11987;BME280;6053;51.382;6.768;2023-02-11T06:01:02;102977.09;;;8.86;100.00
11987;BME280;6053;51.382;6.768;2023-02-11T06:03:31;102979.59;;;9.21;100.00
11987;BME280;6053;51.382;6.768;2023-02-11T06:06:01;102989.94;;;9.28;100.00
11987;BME280;6053;51.382;6.768;2023-02-11T06:08:30;102977.13;;;8.94;100.00
11987;BME280;6053;51.382;6.768;2023-02-11T06:10:58;102978.75;;;9.13;100.00
11987;BME280;6053;51.382;6.768;2023-02-11T06:13:27;102973.66;;;8.84;100.00
11987;BME280;6053;51.382;6.768;2023-02-11T06:15:56;102990.59;;;9.13;100.00
11987;BME280;6053;51.382;6.768;2023-02-11T06:18:25;102984.25;;;8.70;100.00
11987;BME280;6053;51.382;6.768;2023-02-11T06:20:53;102999.22;;;9.18;100.00
11987;BME280;6053;51.382;6.768;2023-02-11T06:23:24;102993.97;;;8.91;100.00
11987;BME280;6053;51.382;6.768;2023-02-11T06:26:01;102989.25;;;8.75;100.00
11987;BME280;6053;51.382;6.768;2023-02-11T06:28:30;102984.88;;;8.30;100.00
11987;BME280;6053;51.382;6.768;2023-02-11T06:31:04;102982.25;;;7.76;100.00
11987;BME280;6053;51.382;6.768;2023-02-11T06:33:34;102986.69;;;8.73;100.00
11987;BME280;6053;51.382;6.768;2023-02-11T06:36:03;102987.38;;;8.76;100.00
11987;BME280;6053;51.382;6.768;2023-02-11T06:38:34;102991.13;;;8.14;100.00
11987;BME280;6053;51.382;6.768;2023-02-11T06:41:02;102992.72;;;8.77;100.00
11987;BME280;6053;51.382;6.768;2023-02-11T06:43:31;102995.06;;;8.12;100.00
11987;BME280;6053;51.382;6.768;2023-02-11T06:46:00;102994.50;;;8.34;100.00
11987;BME280;6053;51.382;6.768;2023-02-11T06:48:28;102988.69;;;8.11;100.00
11987;BME280;6053;51.382;6.768;2023-02-11T06:51:01;102987.09;;;8.26;100.00
11987;BME280;6053;51.382;6.768;2023-02-11T06:53:30;102987.50;;;8.66;100.00
11987;BME280;6053;51.382;6.768;2023-02-11T06:56:04;102998.38;;;8.15;100.00
11987;BME280;6053;51.382;6.768;2023-02-11T06:58:33;103000.13;;;8.77;100.00
11987;BME280;6053;51.382;6.768;2023-02-11T07:01:04;103000.38;;;9.00;100.00
11987;BME280;6053;51.382;6.768;2023-02-11T07:03:34;102996.19;;;8.79;100.00
11987;BME280;6053;51.382;6.768;2023-02-11T07:06:05;103002.59;;;8.96;100.00
11987;BME280;6053;51.382;6.768;2023-02-11T07:08:34;102999.69;;;8.55;100.00
11987;BME280;6053;51.382;6.768;2023-02-11T07:11:10;103013.44;;;8.37;100.00
11987;BME280;6053;51.382;6.768;2023-02-11T07:13:38;103007.09;;;8.63;100.00
11987;BME280;6053;51.382;6.768;2023-02-11T07:16:09;103006.69;;;8.84;100.00
11987;BME280;6053;51.382;6.768;2023-02-11T07:18:38;103010.19;;;9.02;100.00
11987;BME280;6053;51.382;6.768;2023-02-11T07:21:09;103001.56;;;9.05;100.00
11987;BME280;6053;51.382;6.768;2023-02-11T07:23:38;103005.91;;;9.08;100.00
11987;BME280;6053;51.382;6.768;2023-02-11T07:26:10;103005.94;;;9.24;100.00
11987;BME280;6053;51.382;6.768;2023-02-11T07:28:40;103012.41;;;8.98;100.00
11987;BME280;6053;51.382;6.768;2023-02-11T07:31:10;103015.66;;;8.94;100.00
11987;BME280;6053;51.382;6.768;2023-02-11T07:33:40;103014.59;;;8.87;100.00
11987;BME280;6053;51.382;6.768;2023-02-11T07:36:10;103017.63;;;9.18;100.00
11987;BME280;6053;51.382;6.768;2023-02-11T07:38:40;103023.16;;;7.79;100.00
11987;BME280;6053;51.382;6.768;2023-02-11T07:41:12;103024.66;;;7.92;100.00
11987;BME280;6053;51.382;6.768;2023-02-11T07:43:42;103030.59;;;8.05;100.00
11987;BME280;6053;51.382;6.768;2023-02-11T07:46:12;103035.56;;;7.48;100.00
11987;BME280;6053;51.382;6.768;2023-02-11T07:48:41;103036.25;;;8.30;100.00
11987;BME280;6053;51.382;6.768;2023-02-11T07:51:11;103037.06;;;8.22;100.00
11987;BME280;6053;51.382;6.768;2023-02-11T07:53:41;103036.59;;;8.26;100.00
11987;BME280;6053;51.382;6.768;2023-02-11T07:56:12;103041.03;;;8.27;100.00
11987;BME280;6053;51.382;6.768;2023-02-11T07:58:42;103023.59;;;8.63;100.00
11987;BME280;6053;51.382;6.768;2023-02-11T08:01:13;103040.16;;;8.19;100.00
11987;BME280;6053;51.382;6.768;2023-02-11T08:03:42;103041.13;;;8.36;100.00
11987;BME280;6053;51.382;6.768;2023-02-11T08:06:13;103033.25;;;8.67;100.00
11987;BME280;6053;51.382;6.768;2023-02-11T08:08:43;103028.84;;;8.48;100.00
11987;BME280;6053;51.382;6.768;2023-02-11T08:11:14;103039.31;;;8.44;100.00
11987;BME280;6053;51.382;6.768;2023-02-11T08:13:43;103034.09;;;8.67;100.00
11987;BME280;6053;51.382;6.768;2023-02-11T08:16:17;103030.75;;;8.30;100.00
11987;BME280;6053;51.382;6.768;2023-02-11T08:18:46;103034.94;;;8.60;100.00
11987;BME280;6053;51.382;6.768;2023-02-11T08:21:16;103037.91;;;8.40;100.00
11987;BME280;6053;51.382;6.768;2023-02-11T08:23:45;103039.34;;;8.26;100.00
11987;BME280;6053;51.382;6.768;2023-02-11T08:26:17;103040.34;;;8.43;100.00
11987;BME280;6053;51.382;6.768;2023-02-11T08:28:48;103043.41;;;7.96;100.00
11987;BME280;6053;51.382;6.768;2023-02-11T08:31:19;103049.19;;;8.89;100.00
11987;BME280;6053;51.382;6.768;2023-02-11T08:33:49;103053.13;;;9.29;100.00
11987;BME280;6053;51.382;6.768;2023-02-11T08:36:19;103058.28;;;7.40;100.00
11987;BME280;6053;51.382;6.768;2023-02-11T08:38:49;103054.47;;;8.48;100.00
11987;BME280;6053;51.382;6.768;2023-02-11T08:41:19;103061.31;;;8.44;100.00
11987;BME280;6053;51.382;6.768;2023-02-11T08:43:48;103058.63;;;8.79;100.00
11987;BME280;6053;51.382;6.768;2023-02-11T08:46:18;103062.34;;;7.82;100.00
11987;BME280;6053;51.382;6.768;2023-02-11T08:48:47;103061.31;;;7.65;100.00
11987;BME280;6053;51.382;6.768;2023-02-11T08:51:18;103059.81;;;7.88;100.00
11987;BME280;6053;51.382;6.768;2023-02-11T08:53:47;103050.91;;;8.12;100.00
11987;BME280;6053;51.382;6.768;2023-02-11T08:56:20;103058.34;;;8.38;100.00
11987;BME280;6053;51.382;6.768;2023-02-11T08:58:49;103053.84;;;8.89;100.00
11987;BME280;6053;51.382;6.768;2023-02-11T09:01:20;103067.78;;;9.38;100.00
11987;BME280;6053;51.382;6.768;2023-02-11T09:03:49;103066.53;;;9.16;100.00
11987;BME280;6053;51.382;6.768;2023-02-11T09:06:19;103068.53;;;9.06;100.00
11987;BME280;6053;51.382;6.768;2023-02-11T09:08:51;103082.81;;;8.05;100.00
11987;BME280;6053;51.382;6.768;2023-02-11T09:11:25;103086.91;;;8.45;100.00
11987;BME280;6053;51.382;6.768;2023-02-11T09:13:55;103085.25;;;8.78;100.00
11987;BME280;6053;51.382;6.768;2023-02-11T09:16:25;103092.31;;;8.11;100.00
11987;BME280;6053;51.382;6.768;2023-02-11T09:18:57;103097.72;;;7.49;100.00
11987;BME280;6053;51.382;6.768;2023-02-11T09:21:26;103094.06;;;7.76;100.00
11987;BME280;6053;51.382;6.768;2023-02-11T09:23:55;103096.25;;;7.27;100.00
11987;BME280;6053;51.382;6.768;2023-02-11T09:26:27;103098.31;;;7.43;100.00
11987;BME280;6053;51.382;6.768;2023-02-11T09:28:57;103102.13;;;7.77;100.00
11987;BME280;6053;51.382;6.768;2023-02-11T09:31:27;103098.34;;;7.61;100.00
11987;BME280;6053;51.382;6.768;2023-02-11T09:33:58;103093.00;;;7.59;100.00
11987;BME280;6053;51.382;6.768;2023-02-11T09:36:28;103096.09;;;8.54;100.00
11987;BME280;6053;51.382;6.768;2023-02-11T09:38:58;103106.41;;;8.52;100.00
11987;BME280;6053;51.382;6.768;2023-02-11T09:41:40;103103.13;;;8.30;100.00
11987;BME280;6053;51.382;6.768;2023-02-11T09:44:20;103100.25;;;8.84;100.00
11987;BME280;6053;51.382;6.768;2023-02-11T09:46:54;103102.97;;;8.32;100.00
11987;BME280;6053;51.382;6.768;2023-02-11T09:49:29;103111.47;;;8.90;100.00
11987;BME280;6053;51.382;6.768;2023-02-11T09:52:04;103108.03;;;9.23;100.00
11987;BME280;6053;51.382;6.768;2023-02-11T09:54:36;103110.13;;;8.94;100.00
11987;BME280;6053;51.382;6.768;2023-02-11T09:57:09;103113.94;;;9.44;100.00
11987;BME280;6053;51.382;6.768;2023-02-11T09:59:52;103116.38;;;9.47;100.00
11987;BME280;6053;51.382;6.768;2023-02-11T10:02:26;103120.50;;;8.48;100.00
11987;BME280;6053;51.382;6.768;2023-02-11T10:05:12;103119.19;;;8.61;100.00
11987;BME280;6053;51.382;6.768;2023-02-11T10:07:47;103127.13;;;8.90;100.00
11987;BME280;6053;51.382;6.768;2023-02-11T10:10:30;103136.31;;;9.33;100.00
11987;BME280;6053;51.382;6.768;2023-02-11T10:16:03;103132.88;;;8.35;100.00
11987;BME280;6053;51.382;6.768;2023-02-11T10:18:53;103136.56;;;9.13;100.00
11987;BME280;6053;51.382;6.768;2023-02-11T10:21:34;103131.13;;;9.30;100.00
11987;BME280;6053;51.382;6.768;2023-02-11T10:24:10;103137.06;;;8.57;100.00
11987;BME280;6053;51.382;6.768;2023-02-11T10:26:40;103135.66;;;8.53;100.00
11987;BME280;6053;51.382;6.768;2023-02-11T10:29:22;103133.03;;;8.69;100.00
11987;BME280;6053;51.382;6.768;2023-02-11T10:31:53;103135.69;;;7.99;100.00
11987;BME280;6053;51.382;6.768;2023-02-11T10:34:24;103140.09;;;7.64;100.00
11987;BME280;6053;51.382;6.768;2023-02-11T10:36:53;103143.41;;;8.57;100.00
11987;BME280;6053;51.382;6.768;2023-02-11T10:39:25;103145.72;;;8.26;100.00
11987;BME280;6053;51.382;6.768;2023-02-11T10:41:56;103135.28;;;8.73;100.00
11987;BME280;6053;51.382;6.768;2023-02-11T10:44:31;103145.03;;;9.62;100.00
11987;BME280;6053;51.382;6.768;2023-02-11T10:47:03;103138.47;;;9.72;100.00
11987;BME280;6053;51.382;6.768;2023-02-11T10:49:37;103141.72;;;8.82;100.00
11987;BME280;6053;51.382;6.768;2023-02-11T10:52:16;103141.78;;;8.98;100.00
11987;BME280;6053;51.382;6.768;2023-02-11T10:55:04;103135.31;;;9.08;100.00
11987;BME280;6053;51.382;6.768;2023-02-11T10:57:35;103144.97;;;9.12;100.00
11987;BME280;6053;51.382;6.768;2023-02-11T11:00:19;103146.75;;;9.63;100.00
11987;BME280;6053;51.382;6.768;2023-02-11T11:02:54;103151.56;;;8.67;100.00
11987;BME280;6053;51.382;6.768;2023-02-11T11:05:29;103147.50;;;9.05;100.00
11987;BME280;6053;51.382;6.768;2023-02-11T11:08:01;103146.50;;;9.49;100.00
11987;BME280;6053;51.382;6.768;2023-02-11T11:10:37;103140.94;;;9.83;100.00
11987;BME280;6053;51.382;6.768;2023-02-11T11:13:27;103149.22;;;9.99;100.00
11987;BME280;6053;51.382;6.768;2023-02-11T11:16:16;103149.13;;;9.16;100.00
11987;BME280;6053;51.382;6.768;2023-02-11T11:18:47;103156.78;;;9.89;100.00
11987;BME280;6053;51.382;6.768;2023-02-11T11:21:20;103158.03;;;10.11;100.00
11987;BME280;6053;51.382;6.768;2023-02-11T11:23:54;103160.53;;;9.63;100.00
11987;BME280;6053;51.382;6.768;2023-02-11T11:26:24;103161.97;;;9.07;100.00
11987;BME280;6053;51.382;6.768;2023-02-11T11:28:57;103160.03;;;9.26;100.00
11987;BME280;6053;51.382;6.768;2023-02-11T11:31:32;103163.47;;;9.28;100.00
11987;BME280;6053;51.382;6.768;2023-02-11T11:34:16;103160.78;;;9.36;100.00
11987;BME280;6053;51.382;6.768;2023-02-11T11:36:47;103157.78;;;9.63;100.00
11987;BME280;6053;51.382;6.768;2023-02-11T11:39:19;103161.03;;;9.25;100.00
11987;BME280;6053;51.382;6.768;2023-02-11T11:41:52;103161.47;;;9.12;100.00
11987;BME280;6053;51.382;6.768;2023-02-11T11:44:25;103152.69;;;9.42;100.00
11987;BME280;6053;51.382;6.768;2023-02-11T11:47:14;103157.34;;;9.08;100.00
11987;BME280;6053;51.382;6.768;2023-02-11T11:49:50;103146.16;;;8.57;100.00
11987;BME280;6053;51.382;6.768;2023-02-11T11:52:32;103147.25;;;9.16;100.00
11987;BME280;6053;51.382;6.768;2023-02-11T11:55:08;103142.41;;;9.53;100.00
11987;BME280;6053;51.382;6.768;2023-02-11T11:57:40;103144.38;;;9.77;100.00
11987;BME280;6053;51.382;6.768;2023-02-11T12:00:14;103149.88;;;9.26;100.00
11987;BME280;6053;51.382;6.768;2023-02-11T12:05:45;103153.34;;;9.87;100.00
11987;BME280;6053;51.382;6.768;2023-02-11T12:08:23;103144.44;;;9.42;100.00
11987;BME280;6053;51.382;6.768;2023-02-11T12:11:03;103135.44;;;9.32;100.00
11987;BME280;6053;51.382;6.768;2023-02-11T12:13:43;103137.72;;;9.03;100.00
11987;BME280;6053;51.382;6.768;2023-02-11T12:16:23;103136.47;;;8.71;100.00
11987;BME280;6053;51.382;6.768;2023-02-11T12:19:21;103137.41;;;9.14;100.00
11987;BME280;6053;51.382;6.768;2023-02-11T12:22:01;103133.69;;;9.31;100.00
11987;BME280;6053;51.382;6.768;2023-02-11T12:24:47;103140.47;;;9.03;100.00
11987;BME280;6053;51.382;6.768;2023-02-11T12:27:27;103145.63;;;9.06;100.00
11987;BME280;6053;51.382;6.768;2023-02-11T12:30:03;103144.06;;;9.37;100.00
11987;BME280;6053;51.382;6.768;2023-02-11T12:32:45;103148.31;;;9.74;100.00
11987;BME280;6053;51.382;6.768;2023-02-11T12:35:27;103144.50;;;9.67;100.00
11987;BME280;6053;51.382;6.768;2023-02-11T12:38:21;103140.53;;;9.61;100.00
11987;BME280;6053;51.382;6.768;2023-02-11T12:41:03;103140.41;;;9.79;100.00
11987;BME280;6053;51.382;6.768;2023-02-11T12:43:39;103134.84;;;10.30;100.00
11987;BME280;6053;51.382;6.768;2023-02-11T12:46:31;103144.78;;;10.14;100.00
11987;BME280;6053;51.382;6.768;2023-02-11T12:49:20;103136.53;;;9.48;100.00
11987;BME280;6053;51.382;6.768;2023-02-11T12:52:06;103143.22;;;9.45;100.00
11987;BME280;6053;51.382;6.768;2023-02-11T12:54:40;103144.97;;;9.54;100.00
11987;BME280;6053;51.382;6.768;2023-02-11T12:57:16;103134.81;;;9.55;100.00
11987;BME280;6053;51.382;6.768;2023-02-11T12:59:50;103123.88;;;9.87;100.00
11987;BME280;6053;51.382;6.768;2023-02-11T13:02:28;103122.56;;;10.16;100.00
11987;BME280;6053;51.382;6.768;2023-02-11T13:05:04;103118.19;;;9.89;100.00
11987;BME280;6053;51.382;6.768;2023-02-11T13:07:43;103120.03;;;9.72;100.00
11987;BME280;6053;51.382;6.768;2023-02-11T13:10:23;103113.69;;;9.72;100.00
11987;BME280;6053;51.382;6.768;2023-02-11T13:12:55;103121.97;;;9.80;100.00
11987;BME280;6053;51.382;6.768;2023-02-11T13:15:42;103116.97;;;9.75;100.00
11987;BME280;6053;51.382;6.768;2023-02-11T13:18:28;103117.13;;;9.74;100.00
11987;BME280;6053;51.382;6.768;2023-02-11T13:21:37;103123.22;;;10.02;100.00
11987;BME280;6053;51.382;6.768;2023-02-11T13:24:21;103117.38;;;10.29;100.00
11987;BME280;6053;51.382;6.768;2023-02-11T13:26:59;103116.50;;;10.12;100.00
11987;BME280;6053;51.382;6.768;2023-02-11T13:29:33;103124.09;;;10.68;100.00
11987;BME280;6053;51.382;6.768;2023-02-11T13:32:09;103120.81;;;10.56;100.00
11987;BME280;6053;51.382;6.768;2023-02-11T13:34:57;103128.59;;;10.60;100.00
11987;BME280;6053;51.382;6.768;2023-02-11T13:37:29;103123.22;;;10.02;100.00
11987;BME280;6053;51.382;6.768;2023-02-11T13:40:03;103119.63;;;10.26;100.00
11987;BME280;6053;51.382;6.768;2023-02-11T13:42:43;103126.22;;;10.33;100.00